Time;durP1;ratioP1;P1;durP2;ratioP2;P2;SDS_P1;SDS_P2;PMS_P1;PMS_P2;Temp;Humidity;BMP_temperature;BMP_pressure;BME280_temperature;BME280_humidity;BME280_pressure;Samples;Min_cycle;Max_cycle;Signal;HPM_P1;HPM_P2
2024/01/06 00:00:28;;;;;;;;;;;6.60;99.90;;;;;;5119485;28;19911;-77
2024/01/06 00:02:54;;;;;;;;;;;6.60;99.90;;;;;;5118478;28;19912;-80
2024/01/06 00:05:19;;;;;;;;;;;6.60;99.90;;;;;;5118988;28;19908;-80
2024/01/06 00:07:45;;;;;;;;;;;6.60;99.90;;;;;;5117959;28;19967;-78
2024/01/06 00:10:10;;;;;;;;;;;6.60;99.90;;;;;;5119313;28;19990;-79
2024/01/06 00:12:36;;;;;;;;;;;6.60;99.90;;;;;;5119329;27;19935;-81
2024/01/06 00:15:02;;;;;;;;;;;6.60;99.90;;;;;;5118073;28;19960;-78
2024/01/06 00:17:27;;;;;;;;;;;6.60;99.90;;;;;;5117709;28;19907;-80
2024/01/06 00:19:53;;;;;;;;;;;6.60;99.90;;;;;;5117656;28;19904;-81
2024/01/06 00:22:19;;;;;;;;;;;6.60;99.90;;;;;;5118719;28;20440;-77
2024/01/06 00:24:44;;;;;;;;;;;6.70;99.90;;;;;;5119400;28;19911;-79
2024/01/06 00:27:10;;;;;;;;;;;6.70;99.90;;;;;;5118800;28;19911;-79
2024/01/06 00:29:35;;;;;;;;;;;6.70;99.90;;;;;;5118890;27;19960;-80
2024/01/06 00:32:01;;;;;;;;;;;6.70;99.90;;;;;;5115903;28;19904;-77
2024/01/06 00:34:26;;;;;;;;;;;6.80;99.90;;;;;;5118841;28;20284;-80
2024/01/06 00:36:52;;;;;;;;;;;6.80;99.90;;;;;;5116530;28;20426;-78
2024/01/06 00:39:18;;;;;;;;;;;6.80;99.90;;;;;;5118967;28;19907;-80
2024/01/06 00:41:44;;;;;;;;;;;6.80;99.90;;;;;;5117661;28;20332;-80
2024/01/06 00:44:09;;;;;;;;;;;6.90;99.90;;;;;;5119049;28;19912;-78
2024/01/06 00:46:35;;;;;;;;;;;6.90;99.90;;;;;;5117335;28;19904;-76
2024/01/06 00:49:00;;;;;;;;;;;6.90;99.90;;;;;;5118890;28;19916;-77
2024/01/06 00:51:26;;;;;;;;;;;6.90;99.90;;;;;;5117198;28;19904;-75
2024/01/06 00:53:51;;;;;;;;;;;6.90;99.90;;;;;;5117370;28;19938;-78
2024/01/06 00:56:17;;;;;;;;;;;6.90;99.90;;;;;;5118317;28;19916;-79
2024/01/06 00:58:42;;;;;;;;;;;6.90;99.90;;;;;;5116891;28;19911;-76
2024/01/06 01:01:08;;;;;;;;;;;7.00;99.90;;;;;;5117046;28;19911;-76
2024/01/06 01:03:33;;;;;;;;;;;7.00;99.90;;;;;;5117250;28;19912;-78
2024/01/06 01:05:59;;;;;;;;;;;7.00;99.90;;;;;;5118349;28;19904;-77
2024/01/06 01:08:25;;;;;;;;;;;7.00;99.90;;;;;;5118077;28;19904;-77
2024/01/06 01:10:50;;;;;;;;;;;7.00;99.90;;;;;;5118496;28;19957;-76
2024/01/06 01:13:16;;;;;;;;;;;7.00;99.90;;;;;;5116659;28;19961;-78
2024/01/06 01:15:41;;;;;;;;;;;7.00;99.90;;;;;;5115808;28;19907;-75
2024/01/06 01:18:07;;;;;;;;;;;7.00;99.90;;;;;;5118354;28;19911;-74
2024/01/06 01:20:32;;;;;;;;;;;7.00;99.90;;;;;;5116543;28;19904;-76
2024/01/06 01:22:58;;;;;;;;;;;6.90;99.90;;;;;;5117888;28;20299;-74
2024/01/06 01:25:23;;;;;;;;;;;6.90;99.90;;;;;;5117861;28;20002;-76
2024/01/06 01:27:49;;;;;;;;;;;6.90;99.90;;;;;;5118180;28;20295;-75
2024/01/06 01:30:14;;;;;;;;;;;7.00;99.90;;;;;;5118034;28;20390;-76
2024/01/06 01:32:40;;;;;;;;;;;7.00;99.90;;;;;;5115843;28;20410;-78
2024/01/06 01:35:05;;;;;;;;;;;7.00;99.90;;;;;;5117481;28;19930;-77
2024/01/06 01:37:31;;;;;;;;;;;7.00;99.90;;;;;;5117567;28;19943;-77
2024/01/06 01:39:57;;;;;;;;;;;7.00;99.90;;;;;;5117925;28;19964;-76
2024/01/06 01:42:22;;;;;;;;;;;7.00;99.90;;;;;;5117549;28;19954;-75
2024/01/06 01:44:48;;;;;;;;;;;7.00;99.90;;;;;;5116428;28;19904;-77
2024/01/06 01:47:18;;;;;;;;;;;7.00;99.90;;;;;;5116995;28;19943;-77
2024/01/06 01:49:45;;;;;;;;;;;7.00;99.90;;;;;;5115295;28;19904;-75
2024/01/06 01:52:11;;;;;;;;;;;7.00;99.90;;;;;;5117556;28;19973;-76
2024/01/06 01:54:36;;;;;;;;;;;7.00;99.90;;;;;;5115999;28;19909;-74
2024/01/06 01:57:02;;;;;;;;;;;7.00;99.90;;;;;;5117357;27;20406;-77
2024/01/06 01:59:27;;;;;;;;;;;7.00;99.90;;;;;;5116013;28;19908;-77
2024/01/06 02:01:53;;;;;;;;;;;7.00;99.90;;;;;;5117549;28;19908;-77
2024/01/06 02:04:19;;;;;;;;;;;7.00;99.90;;;;;;5111127;28;19953;-76
2024/01/06 02:06:44;;;;;;;;;;;7.00;99.90;;;;;;5109264;28;19908;-75
2024/01/06 02:09:11;;;;;;;;;;;7.00;99.90;;;;;;5116858;28;19912;-75
2024/01/06 02:11:36;;;;;;;;;;;7.00;99.90;;;;;;5115913;28;19903;-74
2024/01/06 02:14:02;;;;;;;;;;;7.00;99.90;;;;;;5115627;28;19914;-76
2024/01/06 02:16:28;;;;;;;;;;;7.00;99.90;;;;;;5116380;27;20299;-76
2024/01/06 02:18:53;;;;;;;;;;;6.90;99.90;;;;;;5115240;28;20481;-80
2024/01/06 02:21:21;;;;;;;;;;;6.90;99.90;;;;;;5116861;28;19922;-78
2024/01/06 02:23:46;;;;;;;;;;;6.90;99.90;;;;;;5116792;28;19907;-77
2024/01/06 02:26:14;;;;;;;;;;;6.90;99.90;;;;;;5117086;27;19903;-75
2024/01/06 02:28:40;;;;;;;;;;;7.00;99.90;;;;;;5116307;28;19949;-75
2024/01/06 02:31:06;;;;;;;;;;;7.00;99.90;;;;;;5115972;28;19907;-75
2024/01/06 02:33:31;;;;;;;;;;;7.00;99.90;;;;;;5115614;28;19903;-77
2024/01/06 02:35:57;;;;;;;;;;;7.00;99.90;;;;;;5116630;28;19990;-76
2024/01/06 02:38:22;;;;;;;;;;;7.00;99.90;;;;;;5116391;28;20356;-77
2024/01/06 02:40:48;;;;;;;;;;;6.90;99.90;;;;;;5115128;28;20351;-78
2024/01/06 02:43:13;;;;;;;;;;;6.90;99.90;;;;;;5116137;28;19912;-74
2024/01/06 02:45:39;;;;;;;;;;;6.90;99.90;;;;;;5116683;28;19912;-76
2024/01/06 02:48:05;;;;;;;;;;;6.90;99.90;;;;;;5116157;28;19903;-77
2024/01/06 02:50:30;;;;;;;;;;;6.80;99.90;;;;;;5116476;28;19907;-77
2024/01/06 02:52:56;;;;;;;;;;;6.80;99.90;;;;;;5114704;28;19977;-77
2024/01/06 02:55:21;;;;;;;;;;;6.80;99.90;;;;;;5116357;28;19920;-79
2024/01/06 02:57:47;;;;;;;;;;;6.80;99.90;;;;;;5112776;28;19912;-77
2024/01/06 03:00:12;;;;;;;;;;;6.70;99.90;;;;;;5114855;28;19908;-78
2024/01/06 03:02:41;;;;;;;;;;;6.70;99.90;;;;;;5115846;28;20327;-75
2024/01/06 03:05:07;;;;;;;;;;;6.60;99.90;;;;;;5116218;28;19968;-76
2024/01/06 03:07:33;;;;;;;;;;;6.60;99.90;;;;;;5114965;28;19908;-76
2024/01/06 03:09:58;;;;;;;;;;;6.60;99.90;;;;;;5116509;28;19933;-76
2024/01/06 03:12:24;;;;;;;;;;;6.50;99.90;;;;;;5114895;28;19915;-75
2024/01/06 03:14:49;;;;;;;;;;;6.50;99.90;;;;;;5114996;28;19907;-75
2024/01/06 03:17:15;;;;;;;;;;;6.50;99.90;;;;;;5113314;28;19904;-77
2024/01/06 03:19:40;;;;;;;;;;;6.50;99.90;;;;;;5116413;28;19939;-78
2024/01/06 03:22:06;;;;;;;;;;;6.50;99.90;;;;;;5116039;28;19908;-74
2024/01/06 03:24:31;;;;;;;;;;;6.50;99.90;;;;;;5114760;28;19903;-78
2024/01/06 03:26:57;;;;;;;;;;;6.40;99.90;;;;;;5115907;28;20379;-74
2024/01/06 03:29:22;;;;;;;;;;;6.40;99.90;;;;;;5116383;28;19912;-76
2024/01/06 03:31:48;;;;;;;;;;;6.50;99.90;;;;;;5109083;28;19904;-76
2024/01/06 03:34:13;;;;;;;;;;;6.50;99.90;;;;;;5108191;28;20294;-75
2024/01/06 03:36:39;;;;;;;;;;;6.50;99.90;;;;;;5114376;28;19908;-77
2024/01/06 03:39:06;;;;;;;;;;;6.50;99.90;;;;;;5116050;28;20290;-76
2024/01/06 03:41:31;;;;;;;;;;;6.60;99.90;;;;;;5115782;28;19960;-75
2024/01/06 03:43:57;;;;;;;;;;;6.60;99.90;;;;;;5116313;28;19939;-75
2024/01/06 03:46:22;;;;;;;;;;;6.60;99.90;;;;;;5112511;28;20361;-77
2024/01/06 03:48:48;;;;;;;;;;;6.60;99.90;;;;;;5101406;28;20276;-76
2024/01/06 03:51:14;;;;;;;;;;;6.60;99.90;;;;;;5114341;28;19943;-77
2024/01/06 03:53:40;;;;;;;;;;;6.50;99.90;;;;;;5115109;28;20009;-76
2024/01/06 03:56:06;;;;;;;;;;;6.50;99.90;;;;;;5114785;28;19940;-77
2024/01/06 03:58:31;;;;;;;;;;;6.50;99.90;;;;;;5114667;28;19965;-76
2024/01/06 04:00:57;;;;;;;;;;;6.50;99.90;;;;;;5115458;28;19943;-75
2024/01/06 04:03:23;;;;;;;;;;;6.40;99.90;;;;;;5114267;28;19969;-76
2024/01/06 04:05:48;;;;;;;;;;;6.40;99.90;;;;;;5107983;28;20468;-76
2024/01/06 04:08:14;;;;;;;;;;;6.40;99.90;;;;;;5115643;28;19907;-75
2024/01/06 04:10:41;;;;;;;;;;;6.40;99.90;;;;;;5114053;28;20041;-75
2024/01/06 04:13:15;;;;;;;;;;;6.40;99.90;;;;;;5117863;28;19945;-76
2024/01/06 04:15:41;;;;;;;;;;;6.40;99.90;;;;;;5110389;28;19930;-76
2024/01/06 04:18:06;;;;;;;;;;;6.40;99.90;;;;;;5117894;28;19904;-74
2024/01/06 04:20:32;;;;;;;;;;;6.40;99.90;;;;;;5117658;28;19903;-76
2024/01/06 04:22:58;;;;;;;;;;;6.40;99.90;;;;;;5119226;27;19918;-76
2024/01/06 04:25:24;;;;;;;;;;;6.30;99.90;;;;;;5102090;28;19908;-76
2024/01/06 04:27:49;;;;;;;;;;;6.30;99.90;;;;;;5108381;28;20372;-77
2024/01/06 04:30:15;;;;;;;;;;;6.30;99.90;;;;;;5117887;28;20303;-74
2024/01/06 04:32:41;;;;;;;;;;;6.30;99.90;;;;;;5113767;28;20375;-76
2024/01/06 04:35:07;;;;;;;;;;;6.30;99.90;;;;;;5117634;28;19916;-77
2024/01/06 04:37:32;;;;;;;;;;;6.30;99.90;;;;;;5119104;27;20001;-76
2024/01/06 04:39:58;;;;;;;;;;;6.20;99.90;;;;;;5117299;28;19956;-76
2024/01/06 04:42:24;;;;;;;;;;;6.20;99.90;;;;;;5118938;28;19939;-76
2024/01/06 04:44:50;;;;;;;;;;;6.20;99.90;;;;;;5118510;27;19996;-80
2024/01/06 04:47:18;;;;;;;;;;;6.20;99.90;;;;;;5117437;28;19907;-76
2024/01/06 04:49:44;;;;;;;;;;;6.20;99.90;;;;;;5118702;28;19961;-75
2024/01/06 04:52:10;;;;;;;;;;;6.10;99.90;;;;;;5118697;28;19912;-72
2024/01/06 04:54:35;;;;;;;;;;;6.10;99.90;;;;;;5118580;28;19912;-73
2024/01/06 04:57:01;;;;;;;;;;;6.00;99.90;;;;;;5118556;28;19919;-75
2024/01/06 04:59:26;;;;;;;;;;;6.00;99.90;;;;;;5118018;28;19912;-74
2024/01/06 05:01:53;;;;;;;;;;;6.00;99.90;;;;;;5118274;28;19915;-74
2024/01/06 05:04:19;;;;;;;;;;;5.90;99.90;;;;;;5118131;28;20398;-76
2024/01/06 05:06:44;;;;;;;;;;;5.90;99.90;;;;;;5117024;28;19911;-73
2024/01/06 05:09:10;;;;;;;;;;;5.90;99.90;;;;;;5118219;28;19912;-76
2024/01/06 05:11:35;;;;;;;;;;;5.80;99.90;;;;;;5116796;28;19908;-75
2024/01/06 05:14:01;;;;;;;;;;;5.80;99.90;;;;;;5118186;28;19903;-76
2024/01/06 05:16:27;;;;;;;;;;;5.80;99.90;;;;;;5118249;28;19951;-75
2024/01/06 05:18:53;;;;;;;;;;;5.80;99.90;;;;;;5117955;28;19919;-76
2024/01/06 05:21:18;;;;;;;;;;;5.80;99.90;;;;;;5118254;28;19907;-74
2024/01/06 05:23:44;;;;;;;;;;;5.90;99.90;;;;;;5117527;28;19904;-76
2024/01/06 05:26:09;;;;;;;;;;;5.90;99.90;;;;;;5117981;28;20349;-75
2024/01/06 05:28:35;;;;;;;;;;;5.90;99.90;;;;;;5104475;28;19977;-76
2024/01/06 05:31:00;;;;;;;;;;;5.90;99.90;;;;;;5118063;28;19907;-76
2024/01/06 05:33:26;;;;;;;;;;;5.90;99.90;;;;;;5117620;28;19908;-76
2024/01/06 05:35:51;;;;;;;;;;;5.90;99.90;;;;;;5116401;28;19904;-76
2024/01/06 05:38:17;;;;;;;;;;;5.90;99.90;;;;;;5117437;28;19907;-75
2024/01/06 05:40:42;;;;;;;;;;;5.90;99.90;;;;;;5116165;28;19914;-74
2024/01/06 05:43:08;;;;;;;;;;;5.90;99.90;;;;;;5117229;28;20252;-75
2024/01/06 05:45:34;;;;;;;;;;;5.90;99.90;;;;;;5114249;28;19903;-76
2024/01/06 05:47:59;;;;;;;;;;;5.90;99.90;;;;;;5116486;28;20306;-75
2024/01/06 05:50:25;;;;;;;;;;;5.90;99.90;;;;;;5117544;28;19931;-75
2024/01/06 05:52:51;;;;;;;;;;;5.90;99.90;;;;;;5117292;28;19903;-75
2024/01/06 05:55:17;;;;;;;;;;;5.90;99.90;;;;;;5115897;28;20395;-75
2024/01/06 05:57:42;;;;;;;;;;;5.90;99.90;;;;;;5102561;28;20303;-78
2024/01/06 06:00:09;;;;;;;;;;;5.90;99.90;;;;;;5115999;28;20460;-76
2024/01/06 06:02:34;;;;;;;;;;;5.90;99.90;;;;;;5115415;28;19929;-76
2024/01/06 06:05:00;;;;;;;;;;;5.90;99.90;;;;;;5117290;28;20359;-75
2024/01/06 06:07:25;;;;;;;;;;;5.90;99.90;;;;;;5117116;28;19904;-76
2024/01/06 06:09:52;;;;;;;;;;;5.90;99.90;;;;;;5115730;28;19958;-75
2024/01/06 06:12:18;;;;;;;;;;;5.90;99.90;;;;;;5117101;28;19903;-76
2024/01/06 06:14:44;;;;;;;;;;;5.90;99.90;;;;;;5116951;28;19915;-75
2024/01/06 06:17:09;;;;;;;;;;;5.90;99.90;;;;;;5115438;28;19912;-76
2024/01/06 06:19:35;;;;;;;;;;;5.90;99.90;;;;;;5116958;28;19903;-76
2024/01/06 06:22:00;;;;;;;;;;;5.90;99.90;;;;;;5116509;28;19908;-77
2024/01/06 06:24:26;;;;;;;;;;;5.90;99.90;;;;;;5117030;28;19903;-76
2024/01/06 06:26:51;;;;;;;;;;;5.90;99.90;;;;;;5103905;28;19918;-76
2024/01/06 06:29:17;;;;;;;;;;;5.90;99.90;;;;;;5112849;28;19908;-76
2024/01/06 06:31:46;;;;;;;;;;;5.90;99.90;;;;;;5114229;28;19907;-75
2024/01/06 06:34:12;;;;;;;;;;;5.90;99.90;;;;;;5116131;28;19910;-75
2024/01/06 06:36:38;;;;;;;;;;;5.90;99.90;;;;;;5116538;28;20423;-75
2024/01/06 06:39:04;;;;;;;;;;;5.90;99.90;;;;;;5116010;28;20313;-75
2024/01/06 06:41:29;;;;;;;;;;;6.00;99.90;;;;;;5116233;28;20392;-74
2024/01/06 06:43:55;;;;;;;;;;;6.00;99.90;;;;;;5116828;28;19927;-75
2024/01/06 06:46:21;;;;;;;;;;;6.00;99.90;;;;;;5115410;28;19910;-75
2024/01/06 06:48:47;;;;;;;;;;;6.00;99.90;;;;;;5116580;28;19907;-74
2024/01/06 06:51:12;;;;;;;;;;;6.00;99.90;;;;;;5116375;28;19904;-74
2024/01/06 06:53:38;;;;;;;;;;;6.10;99.90;;;;;;5116380;28;19915;-75
2024/01/06 06:56:03;;;;;;;;;;;6.10;99.90;;;;;;5116328;28;19919;-75
2024/01/06 06:58:29;;;;;;;;;;;6.10;99.90;;;;;;5116050;28;19911;-75
2024/01/06 07:00:54;;;;;;;;;;;6.10;99.90;;;;;;5116464;28;19908;-75
2024/01/06 07:03:20;;;;;;;;;;;6.10;99.90;;;;;;5114898;28;19912;-76
2024/01/06 07:05:46;;;;;;;;;;;6.10;99.90;;;;;;5110999;28;19953;-76
2024/01/06 07:08:13;;;;;;;;;;;6.10;99.90;;;;;;5108692;28;19908;-78
2024/01/06 07:10:38;;;;;;;;;;;6.10;99.90;;;;;;5114967;28;19919;-75
2024/01/06 07:13:04;;;;;;;;;;;6.10;99.90;;;;;;5116374;28;19965;-76
2024/01/06 07:15:30;;;;;;;;;;;6.10;99.90;;;;;;5114550;28;19922;-76
2024/01/06 07:17:56;;;;;;;;;;;6.10;99.90;;;;;;5116259;28;20393;-76
2024/01/06 07:20:22;;;;;;;;;;;6.10;99.90;;;;;;5116161;28;19904;-77
2024/01/06 07:22:47;;;;;;;;;;;6.00;99.90;;;;;;5115839;28;19960;-73
2024/01/06 07:25:13;;;;;;;;;;;6.00;99.90;;;;;;5114752;28;20036;-76
2024/01/06 07:27:38;;;;;;;;;;;6.00;99.90;;;;;;5114192;28;19910;-75
2024/01/06 07:30:04;;;;;;;;;;;6.00;99.90;;;;;;5116290;28;19911;-76
2024/01/06 07:32:30;;;;;;;;;;;6.00;99.90;;;;;;5109508;27;19918;-76
2024/01/06 07:34:56;;;;;;;;;;;6.00;99.90;;;;;;5114700;28;19907;-76
2024/01/06 07:37:21;;;;;;;;;;;5.90;99.90;;;;;;5115916;28;19907;-76
2024/01/06 07:39:47;;;;;;;;;;;6.00;99.90;;;;;;5116014;28;19944;-74
2024/01/06 07:42:12;;;;;;;;;;;6.00;99.90;;;;;;5115620;28;19911;-75
2024/01/06 07:44:38;;;;;;;;;;;6.00;99.90;;;;;;5114488;28;19903;-76
2024/01/06 07:47:05;;;;;;;;;;;6.00;99.90;;;;;;5116769;28;19966;-76
2024/01/06 07:49:30;;;;;;;;;;;6.00;99.90;;;;;;5119691;27;20400;-76
2024/01/06 07:51:56;;;;;;;;;;;6.00;99.90;;;;;;5119353;28;20287;-75
2024/01/06 07:54:21;;;;;;;;;;;6.10;99.90;;;;;;5119611;28;19908;-77
2024/01/06 07:56:47;;;;;;;;;;;6.10;99.90;;;;;;5119507;28;20312;-76
2024/01/06 07:59:12;;;;;;;;;;;6.10;99.90;;;;;;5118208;28;20413;-76
2024/01/06 08:01:38;;;;;;;;;;;6.10;99.90;;;;;;5119721;28;19908;-76
2024/01/06 08:04:04;;;;;;;;;;;6.10;99.90;;;;;;5118136;28;19979;-74
2024/01/06 08:06:29;;;;;;;;;;;6.10;99.90;;;;;;5119418;28;19903;-76
2024/01/06 08:08:58;;;;;;;;;;;6.20;99.90;;;;;;5118228;28;19907;-74
2024/01/06 08:11:23;;;;;;;;;;;6.20;99.90;;;;;;5119381;27;19946;-79
2024/01/06 08:13:49;;;;;;;;;;;6.20;99.90;;;;;;5119574;28;19911;-84
2024/01/06 08:16:14;;;;;;;;;;;6.20;99.90;;;;;;5112285;28;19949;-78
2024/01/06 08:18:40;;;;;;;;;;;6.30;99.90;;;;;;5118318;28;19912;-78
2024/01/06 08:21:06;;;;;;;;;;;6.30;99.90;;;;;;5119386;28;19907;-78
2024/01/06 08:23:31;;;;;;;;;;;6.30;99.90;;;;;;5114221;28;19907;-83
2024/01/06 08:25:57;;;;;;;;;;;6.20;99.90;;;;;;5119106;28;19908;-80
2024/01/06 08:28:23;;;;;;;;;;;6.20;99.90;;;;;;5117731;28;19910;-78
2024/01/06 08:30:49;;;;;;;;;;;6.20;99.90;;;;;;5111463;28;19912;-82
2024/01/06 08:33:14;;;;;;;;;;;6.20;99.90;;;;;;5114476;28;19904;-81
2024/01/06 08:35:40;;;;;;;;;;;6.30;99.90;;;;;;5105006;28;19965;-84
2024/01/06 08:38:08;;;;;;;;;;;6.30;99.90;;;;;;5110545;28;20485;-87
2024/01/06 08:40:34;;;;;;;;;;;6.40;99.90;;;;;;5114695;28;19991;-82
2024/01/06 08:43:00;;;;;;;;;;;6.40;99.90;;;;;;5114436;28;19956;-81
2024/01/06 08:45:26;;;;;;;;;;;6.50;99.90;;;;;;5113616;28;19998;-81
2024/01/06 08:47:51;;;;;;;;;;;6.50;99.90;;;;;;5112217;28;20434;-77
2024/01/06 08:50:17;;;;;;;;;;;6.50;99.90;;;;;;5114556;28;19907;-79
2024/01/06 08:52:42;;;;;;;;;;;6.50;99.90;;;;;;5114189;28;20363;-78
2024/01/06 08:55:08;;;;;;;;;;;6.60;99.90;;;;;;5113842;28;19911;-78
2024/01/06 08:57:33;;;;;;;;;;;6.70;99.90;;;;;;5105418;28;19922;-77
2024/01/06 08:59:59;;;;;;;;;;;6.70;99.90;;;;;;5112994;28;19909;-79
2024/01/06 09:02:24;;;;;;;;;;;6.80;99.90;;;;;;5109008;28;19912;-76
2024/01/06 09:04:50;;;;;;;;;;;6.80;99.90;;;;;;5100796;28;19920;-77
2024/01/06 09:07:17;;;;;;;;;;;6.70;99.90;;;;;;5110295;28;19916;-77
2024/01/06 09:09:42;;;;;;;;;;;6.80;99.90;;;;;;5114133;28;19915;-77
2024/01/06 09:12:08;;;;;;;;;;;6.80;99.90;;;;;;5113800;28;19907;-78
2024/01/06 09:14:33;;;;;;;;;;;6.80;99.90;;;;;;5113435;28;20456;-77
2024/01/06 09:16:59;;;;;;;;;;;6.80;99.90;;;;;;5113498;28;20075;-78
2024/01/06 09:19:25;;;;;;;;;;;6.90;99.90;;;;;;5112436;28;19926;-76
2024/01/06 09:21:50;;;;;;;;;;;6.90;99.90;;;;;;5113173;28;19916;-77
2024/01/06 09:24:16;;;;;;;;;;;6.90;99.90;;;;;;5112054;28;20283;-77
2024/01/06 09:26:42;;;;;;;;;;;6.90;99.90;;;;;;5113243;28;20504;-77
2024/01/06 09:29:07;;;;;;;;;;;7.00;99.90;;;;;;5112160;28;19914;-76
2024/01/06 09:31:33;;;;;;;;;;;7.00;99.90;;;;;;5111529;28;19907;-79
2024/01/06 09:34:02;;;;;;;;;;;7.10;99.90;;;;;;5113003;28;19908;-77
2024/01/06 09:36:28;;;;;;;;;;;7.10;99.90;;;;;;5101001;27;19965;-79
2024/01/06 09:38:54;;;;;;;;;;;7.20;99.90;;;;;;5109217;28;20743;-80
2024/01/06 09:41:21;;;;;;;;;;;7.30;99.90;;;;;;5105451;28;19966;-77
2024/01/06 09:43:47;;;;;;;;;;;7.20;99.90;;;;;;5106191;28;19911;-78
2024/01/06 09:46:20;;;;;;;;;;;7.20;99.90;;;;;;5109982;28;19904;-78
2024/01/06 09:48:47;;;;;;;;;;;7.30;99.90;;;;;;5097733;28;19904;-78
2024/01/06 09:51:13;;;;;;;;;;;7.40;99.90;;;;;;5109963;28;20393;-77
2024/01/06 09:53:42;;;;;;;;;;;7.50;99.90;;;;;;5109672;28;19914;-77
2024/01/06 09:56:08;;;;;;;;;;;7.50;99.90;;;;;;5097265;28;19998;-77
2024/01/06 09:58:36;;;;;;;;;;;7.40;99.90;;;;;;5102092;28;19922;-77
2024/01/06 10:01:02;;;;;;;;;;;7.40;99.90;;;;;;5101501;28;19949;-77
2024/01/06 10:03:28;;;;;;;;;;;7.40;99.90;;;;;;5092027;28;19912;-79
2024/01/06 10:05:54;;;;;;;;;;;7.40;99.90;;;;;;5103263;28;19930;-77
2024/01/06 10:08:20;;;;;;;;;;;7.40;99.90;;;;;;5106279;28;20399;-76
2024/01/06 10:10:45;;;;;;;;;;;7.50;99.90;;;;;;5106463;27;19950;-79
2024/01/06 10:13:11;;;;;;;;;;;7.60;99.90;;;;;;5108692;28;19907;-77
2024/01/06 10:15:36;;;;;;;;;;;7.60;99.90;;;;;;5109471;28;19908;-75
2024/01/06 10:18:05;;;;;;;;;;;7.60;99.90;;;;;;5109657;28;19907;-79
2024/01/06 10:20:31;;;;;;;;;;;7.60;99.90;;;;;;5112277;28;19918;-76
2024/01/06 10:23:04;;;;;;;;;;;7.60;99.90;;;;;;5113420;28;19907;-77
2024/01/06 10:25:29;;;;;;;;;;;7.60;99.90;;;;;;5109934;28;20344;-74
2024/01/06 10:27:55;;;;;;;;;;;7.50;99.90;;;;;;5114224;28;20010;-77
2024/01/06 10:30:20;;;;;;;;;;;7.40;99.90;;;;;;5111840;28;20006;-75
2024/01/06 10:32:46;;;;;;;;;;;7.30;99.90;;;;;;5113814;28;19911;-75
2024/01/06 10:35:11;;;;;;;;;;;7.30;99.90;;;;;;5113315;28;20427;-75
2024/01/06 10:37:37;;;;;;;;;;;7.20;99.90;;;;;;5110561;28;19904;-73
2024/01/06 10:40:13;;;;;;;;;;;7.00;99.90;;;;;;5111102;28;19904;-78
2024/01/06 10:42:39;;;;;;;;;;;7.00;99.90;;;;;;5109590;28;19947;-77
2024/01/06 10:45:09;;;;;;;;;;;7.00;99.90;;;;;;5110905;28;20018;-77
2024/01/06 10:47:35;;;;;;;;;;;7.10;99.90;;;;;;5111382;27;19908;-77
2024/01/06 10:50:01;;;;;;;;;;;7.20;99.90;;;;;;5115013;28;19912;-76
2024/01/06 10:52:27;;;;;;;;;;;7.20;99.90;;;;;;5108645;28;19957;-79
2024/01/06 10:54:54;;;;;;;;;;;7.30;99.90;;;;;;5113255;28;19903;-77
2024/01/06 10:57:19;;;;;;;;;;;7.40;99.90;;;;;;5112541;28;19919;-78
2024/01/06 10:59:48;;;;;;;;;;;7.40;99.90;;;;;;5109820;28;20320;-79
2024/01/06 11:02:16;;;;;;;;;;;7.50;99.90;;;;;;5110756;28;19907;-78
2024/01/06 11:04:42;;;;;;;;;;;7.60;99.90;;;;;;5111357;28;20291;-77
2024/01/06 11:07:07;;;;;;;;;;;7.60;99.90;;;;;;5113159;28;19904;-77
2024/01/06 11:09:34;;;;;;;;;;;7.60;99.90;;;;;;5114870;28;19911;-77
2024/01/06 11:12:00;;;;;;;;;;;7.50;99.90;;;;;;5100275;28;19930;-77
2024/01/06 11:14:27;;;;;;;;;;;7.40;99.90;;;;;;5106758;27;19994;-77
2024/01/06 11:16:54;;;;;;;;;;;7.50;99.90;;;;;;5105169;28;20356;-77
2024/01/06 11:19:35;;;;;;;;;;;7.50;99.90;;;;;;5106594;28;19911;-75
2024/01/06 11:22:19;;;;;;;;;;;7.50;99.90;;;;;;5112118;28;20211;-76
2024/01/06 11:24:51;;;;;;;;;;;7.50;99.90;;;;;;5109301;28;19908;-78
2024/01/06 11:27:28;;;;;;;;;;;7.50;99.90;;;;;;5107766;28;19911;-77
2024/01/06 11:29:57;;;;;;;;;;;7.40;99.90;;;;;;5108536;28;19907;-79
2024/01/06 11:32:38;;;;;;;;;;;7.40;99.90;;;;;;5111182;28;19947;-77
2024/01/06 11:35:13;;;;;;;;;;;7.30;99.90;;;;;;5109857;28;19908;-76
2024/01/06 11:37:39;;;;;;;;;;;7.30;99.90;;;;;;5110050;28;19992;-76
2024/01/06 11:40:26;;;;;;;;;;;7.30;99.90;;;;;;5111397;28;19907;-78
2024/01/06 11:43:01;;;;;;;;;;;7.30;99.90;;;;;;5106872;28;19968;-76
2024/01/06 11:45:27;;;;;;;;;;;7.40;99.90;;;;;;5108654;28;19918;-77
2024/01/06 11:47:58;;;;;;;;;;;7.40;99.90;;;;;;5111379;28;20002;-76
2024/01/06 11:50:24;;;;;;;;;;;7.40;99.90;;;;;;5112236;28;19915;-78
2024/01/06 11:52:51;;;;;;;;;;;7.50;99.90;;;;;;5110820;28;19907;-77
2024/01/06 11:55:20;;;;;;;;;;;7.60;99.90;;;;;;5114240;28;19916;-77
2024/01/06 11:57:45;;;;;;;;;;;7.60;99.90;;;;;;5112367;28;19918;-77
2024/01/06 12:00:14;;;;;;;;;;;7.60;99.90;;;;;;5113687;28;20379;-77
2024/01/06 12:02:40;;;;;;;;;;;7.70;99.90;;;;;;5110639;28;19916;-79
2024/01/06 12:05:05;;;;;;;;;;;7.70;99.90;;;;;;5113922;28;19915;-78
2024/01/06 12:07:31;;;;;;;;;;;7.80;99.90;;;;;;5108259;28;20284;-76
2024/01/06 12:10:00;;;;;;;;;;;7.80;99.90;;;;;;5108755;28;20429;-77
2024/01/06 12:12:26;;;;;;;;;;;7.80;99.90;;;;;;5108169;28;19911;-76
2024/01/06 12:14:51;;;;;;;;;;;7.80;99.90;;;;;;5108368;28;19916;-77
2024/01/06 12:17:17;;;;;;;;;;;7.70;99.90;;;;;;5111443;28;19903;-77
2024/01/06 12:19:43;;;;;;;;;;;7.70;99.90;;;;;;5108682;28;19954;-77
2024/01/06 12:22:13;;;;;;;;;;;7.60;99.90;;;;;;5109092;28;20284;-79
2024/01/06 12:24:39;;;;;;;;;;;7.70;99.90;;;;;;5112021;28;20045;-77
2024/01/06 12:27:06;;;;;;;;;;;7.60;99.90;;;;;;5103716;28;19939;-77
2024/01/06 12:29:31;;;;;;;;;;;7.60;99.90;;;;;;5111583;28;19907;-76
2024/01/06 12:31:59;;;;;;;;;;;7.60;99.90;;;;;;5108244;28;19916;-77
2024/01/06 12:34:24;;;;;;;;;;;7.70;99.90;;;;;;5109722;28;20463;-76
2024/01/06 12:36:52;;;;;;;;;;;7.70;99.90;;;;;;5108680;28;20020;-75
2024/01/06 12:39:18;;;;;;;;;;;7.80;99.90;;;;;;5107680;28;19904;-75
2024/01/06 12:41:43;;;;;;;;;;;7.80;99.90;;;;;;5107973;28;19912;-75
2024/01/06 12:44:09;;;;;;;;;;;7.80;99.90;;;;;;5108624;28;19904;-74
2024/01/06 12:46:35;;;;;;;;;;;7.90;99.90;;;;;;5109754;28;20271;-75
2024/01/06 12:49:00;;;;;;;;;;;7.90;99.90;;;;;;5106238;28;20010;-76
2024/01/06 12:51:26;;;;;;;;;;;7.90;99.90;;;;;;5112951;28;19908;-76
2024/01/06 12:53:52;;;;;;;;;;;7.90;99.90;;;;;;5108466;28;19991;-76
2024/01/06 12:56:17;;;;;;;;;;;7.70;99.90;;;;;;5110441;28;19915;-76
2024/01/06 12:58:43;;;;;;;;;;;7.70;99.90;;;;;;5111732;28;19908;-75
2024/01/06 13:01:09;;;;;;;;;;;7.70;99.90;;;;;;5107690;28;19956;-74
2024/01/06 13:03:34;;;;;;;;;;;7.60;99.90;;;;;;5110868;28;19911;-75
2024/01/06 13:06:00;;;;;;;;;;;7.60;99.90;;;;;;5107679;28;20363;-75
2024/01/06 13:08:27;;;;;;;;;;;7.70;99.90;;;;;;5108173;28;20292;-76
2024/01/06 13:10:53;;;;;;;;;;;7.80;99.90;;;;;;5112962;28;19912;-76
2024/01/06 13:13:18;;;;;;;;;;;7.80;99.90;;;;;;5103910;28;19943;-75
2024/01/06 13:15:46;;;;;;;;;;;7.90;99.90;;;;;;5107691;28;19908;-76
2024/01/06 13:18:12;;;;;;;;;;;7.90;99.90;;;;;;5109320;28;19972;-76
2024/01/06 13:20:40;;;;;;;;;;;7.90;99.90;;;;;;5104372;28;19951;-74
2024/01/06 13:23:06;;;;;;;;;;;7.90;99.90;;;;;;5105562;28;19912;-74
2024/01/06 13:25:32;;;;;;;;;;;7.90;99.90;;;;;;5112622;28;19908;-74
2024/01/06 13:27:58;;;;;;;;;;;7.80;99.90;;;;;;5106039;28;20342;-75
2024/01/06 13:30:25;;;;;;;;;;;7.80;99.90;;;;;;5109876;28;19948;-74
2024/01/06 13:32:53;;;;;;;;;;;7.80;99.90;;;;;;5107296;28;19907;-75
2024/01/06 13:35:24;;;;;;;;;;;7.80;99.90;;;;;;5107265;28;19911;-75
2024/01/06 13:37:54;;;;;;;;;;;7.80;99.90;;;;;;5107854;28;19911;-73
2024/01/06 13:40:19;;;;;;;;;;;7.70;99.90;;;;;;5110842;28;19946;-74
2024/01/06 13:42:46;;;;;;;;;;;7.70;99.90;;;;;;5108679;28;19970;-73
2024/01/06 13:45:13;;;;;;;;;;;7.70;99.90;;;;;;5111268;28;19907;-73
2024/01/06 13:47:41;;;;;;;;;;;7.70;99.90;;;;;;5110400;28;20006;-73
2024/01/06 13:50:08;;;;;;;;;;;7.60;99.90;;;;;;5110808;28;19907;-75
2024/01/06 13:52:33;;;;;;;;;;;7.50;99.90;;;;;;5107342;28;19912;-75
2024/01/06 13:55:00;;;;;;;;;;;7.30;99.90;;;;;;5104852;28;19940;-75
2024/01/06 13:57:25;;;;;;;;;;;7.20;99.90;;;;;;5108736;28;19919;-74
2024/01/06 13:59:51;;;;;;;;;;;7.20;99.90;;;;;;5111009;28;19911;-76
2024/01/06 14:02:17;;;;;;;;;;;7.20;99.90;;;;;;5110150;28;19912;-76
2024/01/06 14:04:43;;;;;;;;;;;7.20;99.90;;;;;;5108627;28;19914;-77
2024/01/06 14:07:10;;;;;;;;;;;7.20;99.90;;;;;;5103640;28;19904;-77
2024/01/06 14:09:35;;;;;;;;;;;7.20;99.90;;;;;;5103438;28;20637;-76
2024/01/06 14:12:01;;;;;;;;;;;7.30;99.90;;;;;;5108061;28;19973;-77
2024/01/06 14:14:26;;;;;;;;;;;7.30;99.90;;;;;;5108439;28;19922;-77
2024/01/06 14:16:52;;;;;;;;;;;7.50;99.90;;;;;;5111559;28;19911;-78
2024/01/06 14:19:18;;;;;;;;;;;7.60;99.90;;;;;;5111480;27;19926;-76
2024/01/06 14:21:43;;;;;;;;;;;7.70;99.90;;;;;;5110314;28;19919;-77
2024/01/06 14:24:09;;;;;;;;;;;7.80;99.90;;;;;;5109018;28;19932;-76